sensor_id;sensor_type;location;lat;lon;timestamp;P1;durP1;ratioP1;P2;durP2;ratioP2
58774;SDS011;44545;47.480;19.024;2023-04-24T03:12:26;2.35;;;2.15;;
58774;SDS011;44545;47.480;19.024;2023-04-24T03:15:29;5.43;;;3.97;;
58774;SDS011;44545;47.480;19.024;2023-04-24T03:18:31;5.07;;;3.83;;
58774;SDS011;44545;47.480;19.024;2023-04-24T03:21:34;4.62;;;3.45;;
58774;SDS011;44545;47.480;19.024;2023-04-24T03:24:37;5.20;;;3.70;;
58774;SDS011;44545;47.480;19.024;2023-04-24T03:27:40;6.20;;;3.53;;
58774;SDS011;44545;47.480;19.024;2023-04-24T03:30:42;6.82;;;3.75;;
58774;SDS011;44545;47.480;19.024;2023-04-24T03:33:45;4.87;;;3.62;;
58774;SDS011;44545;47.480;19.024;2023-04-24T03:36:47;4.72;;;4.22;;
58774;SDS011;44545;47.480;19.024;2023-04-24T03:39:50;6.32;;;3.30;;
58774;SDS011;44545;47.480;19.024;2023-04-24T03:42:53;5.93;;;3.28;;
58774;SDS011;44545;47.480;19.024;2023-04-24T03:45:55;5.10;;;3.50;;
58774;SDS011;44545;47.480;19.024;2023-04-24T03:48:58;3.67;;;2.85;;
58774;SDS011;44545;47.480;19.024;2023-04-24T03:52:01;8.77;;;4.20;;
58774;SDS011;44545;47.480;19.024;2023-04-24T03:55:04;4.68;;;3.33;;
58774;SDS011;44545;47.480;19.024;2023-04-24T03:58:10;6.28;;;3.55;;
58774;SDS011;44545;47.480;19.024;2023-04-24T04:01:13;7.65;;;4.03;;
58774;SDS011;44545;47.480;19.024;2023-04-24T04:04:18;6.32;;;4.30;;
58774;SDS011;44545;47.480;19.024;2023-04-24T04:07:20;6.57;;;4.40;;
58774;SDS011;44545;47.480;19.024;2023-04-24T04:10:23;8.50;;;4.37;;
58774;SDS011;44545;47.480;19.024;2023-04-24T04:13:25;5.12;;;3.72;;
58774;SDS011;44545;47.480;19.024;2023-04-24T04:16:27;5.95;;;3.72;;
58774;SDS011;44545;47.480;19.024;2023-04-24T04:19:30;7.40;;;3.97;;
58774;SDS011;44545;47.480;19.024;2023-04-24T04:22:33;7.10;;;3.45;;
58774;SDS011;44545;47.480;19.024;2023-04-24T04:25:36;4.47;;;2.95;;
58774;SDS011;44545;47.480;19.024;2023-04-24T04:28:39;7.78;;;3.72;;
58774;SDS011;44545;47.480;19.024;2023-04-24T04:31:41;4.90;;;2.80;;
58774;SDS011;44545;47.480;19.024;2023-04-24T04:34:44;6.30;;;3.72;;
58774;SDS011;44545;47.480;19.024;2023-04-24T04:37:47;7.15;;;3.75;;
58774;SDS011;44545;47.480;19.024;2023-04-24T04:40:50;5.85;;;3.47;;
58774;SDS011;44545;47.480;19.024;2023-04-24T04:43:53;14.65;;;4.47;;
58774;SDS011;44545;47.480;19.024;2023-04-24T04:46:57;5.40;;;4.15;;
58774;SDS011;44545;47.480;19.024;2023-04-24T04:49:59;7.20;;;3.85;;
58774;SDS011;44545;47.480;19.024;2023-04-24T04:53:02;8.10;;;5.10;;
58774;SDS011;44545;47.480;19.024;2023-04-24T04:56:05;6.03;;;3.67;;
58774;SDS011;44545;47.480;19.024;2023-04-24T04:59:08;5.30;;;2.97;;
58774;SDS011;44545;47.480;19.024;2023-04-24T05:02:10;9.38;;;4.05;;
58774;SDS011;44545;47.480;19.024;2023-04-24T05:05:13;4.32;;;3.28;;
58774;SDS011;44545;47.480;19.024;2023-04-24T05:08:16;5.53;;;3.30;;
58774;SDS011;44545;47.480;19.024;2023-04-24T05:11:28;4.12;;;3.40;;
58774;SDS011;44545;47.480;19.024;2023-04-24T05:14:31;4.53;;;3.22;;
58774;SDS011;44545;47.480;19.024;2023-04-24T05:17:35;6.57;;;3.33;;
58774;SDS011;44545;47.480;19.024;2023-04-24T05:20:38;6.45;;;3.55;;
58774;SDS011;44545;47.480;19.024;2023-04-24T05:23:40;6.15;;;4.03;;
58774;SDS011;44545;47.480;19.024;2023-04-24T05:26:42;8.68;;;4.72;;
58774;SDS011;44545;47.480;19.024;2023-04-24T05:29:45;5.75;;;3.75;;
58774;SDS011;44545;47.480;19.024;2023-04-24T05:32:47;5.75;;;4.07;;
58774;SDS011;44545;47.480;19.024;2023-04-24T05:35:50;5.18;;;3.60;;
58774;SDS011;44545;47.480;19.024;2023-04-24T05:38:53;4.30;;;3.37;;
58774;SDS011;44545;47.480;19.024;2023-04-24T05:41:55;6.45;;;4.65;;
58774;SDS011;44545;47.480;19.024;2023-04-24T05:45:00;6.12;;;4.12;;
58774;SDS011;44545;47.480;19.024;2023-04-24T05:48:02;7.43;;;4.32;;
58774;SDS011;44545;47.480;19.024;2023-04-24T05:51:07;6.65;;;3.97;;
58774;SDS011;44545;47.480;19.024;2023-04-24T05:54:09;7.15;;;4.18;;
58774;SDS011;44545;47.480;19.024;2023-04-24T05:57:14;5.25;;;3.40;;
58774;SDS011;44545;47.480;19.024;2023-04-24T06:00:18;8.23;;;4.10;;
58774;SDS011;44545;47.480;19.024;2023-04-24T06:03:22;6.12;;;3.95;;
58774;SDS011;44545;47.480;19.024;2023-04-24T06:06:25;11.85;;;4.68;;
58774;SDS011;44545;47.480;19.024;2023-04-24T06:09:29;8.82;;;4.00;;
58774;SDS011;44545;47.480;19.024;2023-04-24T06:12:32;4.90;;;3.75;;
58774;SDS011;44545;47.480;19.024;2023-04-24T06:15:34;8.80;;;4.32;;
58774;SDS011;44545;47.480;19.024;2023-04-24T06:18:38;7.60;;;4.60;;
58774;SDS011;44545;47.480;19.024;2023-04-24T06:21:40;4.57;;;3.08;;
58774;SDS011;44545;47.480;19.024;2023-04-24T06:24:42;7.05;;;3.92;;
58774;SDS011;44545;47.480;19.024;2023-04-24T06:27:45;8.88;;;4.12;;
58774;SDS011;44545;47.480;19.024;2023-04-24T06:30:48;7.05;;;4.00;;
58774;SDS011;44545;47.480;19.024;2023-04-24T06:33:50;6.25;;;4.25;;
58774;SDS011;44545;47.480;19.024;2023-04-24T06:36:53;5.87;;;3.67;;
58774;SDS011;44545;47.480;19.024;2023-04-24T06:39:57;8.90;;;4.72;;
58774;SDS011;44545;47.480;19.024;2023-04-24T06:42:59;6.05;;;4.12;;
58774;SDS011;44545;47.480;19.024;2023-04-24T06:46:04;7.12;;;4.07;;
58774;SDS011;44545;47.480;19.024;2023-04-24T06:49:07;7.68;;;4.37;;
58774;SDS011;44545;47.480;19.024;2023-04-24T06:52:09;14.35;;;6.00;;
58774;SDS011;44545;47.480;19.024;2023-04-24T06:55:12;7.10;;;4.37;;
58774;SDS011;44545;47.480;19.024;2023-04-24T06:58:17;5.43;;;3.97;;
58774;SDS011;44545;47.480;19.024;2023-04-24T07:01:20;7.75;;;4.25;;
58774;SDS011;44545;47.480;19.024;2023-04-24T07:04:23;7.82;;;4.20;;
58774;SDS011;44545;47.480;19.024;2023-04-24T07:07:27;6.43;;;4.37;;
58774;SDS011;44545;47.480;19.024;2023-04-24T07:10:31;6.35;;;3.90;;
58774;SDS011;44545;47.480;19.024;2023-04-24T07:13:39;6.43;;;3.47;;
58774;SDS011;44545;47.480;19.024;2023-04-24T07:16:44;5.45;;;3.70;;
58774;SDS011;44545;47.480;19.024;2023-04-24T07:19:48;8.23;;;4.55;;
58774;SDS011;44545;47.480;19.024;2023-04-24T07:22:52;7.35;;;3.40;;
58774;SDS011;44545;47.480;19.024;2023-04-24T07:25:56;11.75;;;4.53;;
58774;SDS011;44545;47.480;19.024;2023-04-24T07:28:59;7.25;;;3.53;;
58774;SDS011;44545;47.480;19.024;2023-04-24T07:32:01;4.50;;;3.47;;
58774;SDS011;44545;47.480;19.024;2023-04-24T07:35:08;6.85;;;4.32;;
58774;SDS011;44545;47.480;19.024;2023-04-24T07:38:14;22.90;;;4.18;;
58774;SDS011;44545;47.480;19.024;2023-04-24T07:41:22;7.95;;;4.18;;
58774;SDS011;44545;47.480;19.024;2023-04-24T07:44:26;3.62;;;2.83;;
58774;SDS011;44545;47.480;19.024;2023-04-24T07:47:29;5.72;;;4.15;;
58774;SDS011;44545;47.480;19.024;2023-04-24T07:50:31;7.70;;;4.35;;
58774;SDS011;44545;47.480;19.024;2023-04-24T07:53:34;9.13;;;4.25;;
58774;SDS011;44545;47.480;19.024;2023-04-24T07:56:38;6.00;;;3.97;;
58774;SDS011;44545;47.480;19.024;2023-04-24T07:59:41;8.80;;;4.47;;
58774;SDS011;44545;47.480;19.024;2023-04-24T08:02:44;5.68;;;3.22;;
58774;SDS011;44545;47.480;19.024;2023-04-24T08:05:47;9.23;;;4.43;;
58774;SDS011;44545;47.480;19.024;2023-04-24T08:09:01;9.95;;;3.60;;
58774;SDS011;44545;47.480;19.024;2023-04-24T08:12:05;10.95;;;4.50;;
58774;SDS011;44545;47.480;19.024;2023-04-24T08:15:12;6.30;;;3.78;;
58774;SDS011;44545;47.480;19.024;2023-04-24T08:18:16;7.05;;;3.95;;
58774;SDS011;44545;47.480;19.024;2023-04-24T08:21:19;7.82;;;4.32;;
58774;SDS011;44545;47.480;19.024;2023-04-24T08:24:23;7.82;;;4.37;;
58774;SDS011;44545;47.480;19.024;2023-04-24T08:27:26;8.20;;;4.00;;
58774;SDS011;44545;47.480;19.024;2023-04-24T08:30:32;7.85;;;3.40;;
58774;SDS011;44545;47.480;19.024;2023-04-24T08:33:35;5.82;;;4.07;;
58774;SDS011;44545;47.480;19.024;2023-04-24T08:36:37;7.30;;;4.78;;
58774;SDS011;44545;47.480;19.024;2023-04-24T08:39:51;9.30;;;4.97;;
58774;SDS011;44545;47.480;19.024;2023-04-24T08:42:54;6.80;;;3.90;;
58774;SDS011;44545;47.480;19.024;2023-04-24T08:46:00;7.53;;;4.47;;
58774;SDS011;44545;47.480;19.024;2023-04-24T08:49:07;6.90;;;3.95;;
58774;SDS011;44545;47.480;19.024;2023-04-24T08:52:09;4.95;;;3.42;;
58774;SDS011;44545;47.480;19.024;2023-04-24T08:55:16;5.62;;;4.05;;
58774;SDS011;44545;47.480;19.024;2023-04-24T08:58:24;5.10;;;3.60;;
58774;SDS011;44545;47.480;19.024;2023-04-24T09:01:29;8.15;;;4.53;;
58774;SDS011;44545;47.480;19.024;2023-04-24T09:07:44;10.20;;;4.60;;
58774;SDS011;44545;47.480;19.024;2023-04-24T09:10:55;6.50;;;3.87;;
58774;SDS011;44545;47.480;19.024;2023-04-24T09:14:00;5.82;;;3.90;;
58774;SDS011;44545;47.480;19.024;2023-04-24T09:17:03;6.65;;;3.72;;
58774;SDS011;44545;47.480;19.024;2023-04-24T09:20:09;8.38;;;3.72;;
58774;SDS011;44545;47.480;19.024;2023-04-24T09:23:17;6.12;;;3.72;;
58774;SDS011;44545;47.480;19.024;2023-04-24T09:26:20;5.78;;;4.03;;
58774;SDS011;44545;47.480;19.024;2023-04-24T09:29:23;6.15;;;3.95;;
58774;SDS011;44545;47.480;19.024;2023-04-24T09:32:27;6.00;;;3.62;;
58774;SDS011;44545;47.480;19.024;2023-04-24T09:35:33;4.22;;;3.25;;
58774;SDS011;44545;47.480;19.024;2023-04-24T09:38:36;10.93;;;3.20;;
58774;SDS011;44545;47.480;19.024;2023-04-24T09:41:44;7.32;;;3.40;;
58774;SDS011;44545;47.480;19.024;2023-04-24T09:44:49;7.18;;;3.80;;
58774;SDS011;44545;47.480;19.024;2023-04-24T09:48:05;8.95;;;4.28;;
58774;SDS011;44545;47.480;19.024;2023-04-24T09:51:13;6.05;;;3.70;;
58774;SDS011;44545;47.480;19.024;2023-04-24T09:54:17;5.70;;;3.70;;
58774;SDS011;44545;47.480;19.024;2023-04-24T09:57:26;7.22;;;3.95;;
58774;SDS011;44545;47.480;19.024;2023-04-24T10:00:31;6.78;;;3.62;;
58774;SDS011;44545;47.480;19.024;2023-04-24T10:06:37;5.18;;;3.05;;
58774;SDS011;44545;47.480;19.024;2023-04-24T10:09:40;5.20;;;3.28;;
58774;SDS011;44545;47.480;19.024;2023-04-24T10:12:44;4.72;;;2.87;;
58774;SDS011;44545;47.480;19.024;2023-04-24T10:15:47;4.20;;;2.50;;
58774;SDS011;44545;47.480;19.024;2023-04-24T10:18:53;4.82;;;3.20;;
58774;SDS011;44545;47.480;19.024;2023-04-24T10:21:56;6.90;;;3.05;;
58774;SDS011;44545;47.480;19.024;2023-04-24T10:24:59;4.93;;;3.12;;
58774;SDS011;44545;47.480;19.024;2023-04-24T10:28:03;5.20;;;2.60;;
58774;SDS011;44545;47.480;19.024;2023-04-24T10:31:10;7.80;;;3.65;;
58774;SDS011;44545;47.480;19.024;2023-04-24T10:34:15;5.28;;;3.05;;
58774;SDS011;44545;47.480;19.024;2023-04-24T10:37:22;5.55;;;2.95;;
58774;SDS011;44545;47.480;19.024;2023-04-24T10:40:31;9.18;;;3.78;;
58774;SDS011;44545;47.480;19.024;2023-04-24T10:43:35;7.43;;;4.60;;
58774;SDS011;44545;47.480;19.024;2023-04-24T10:46:43;8.18;;;3.25;;
58774;SDS011;44545;47.480;19.024;2023-04-24T10:49:54;6.32;;;3.65;;
58774;SDS011;44545;47.480;19.024;2023-04-24T10:53:07;9.95;;;3.30;;
58774;SDS011;44545;47.480;19.024;2023-04-24T10:56:15;7.82;;;3.65;;
58774;SDS011;44545;47.480;19.024;2023-04-24T10:59:27;8.02;;;4.43;;
58774;SDS011;44545;47.480;19.024;2023-04-24T11:02:37;9.60;;;3.87;;
58774;SDS011;44545;47.480;19.024;2023-04-24T11:05:49;6.43;;;3.97;;
58774;SDS011;44545;47.480;19.024;2023-04-24T11:08:52;6.47;;;3.45;;
58774;SDS011;44545;47.480;19.024;2023-04-24T11:12:07;7.62;;;3.65;;
58774;SDS011;44545;47.480;19.024;2023-04-24T11:15:12;6.40;;;4.05;;
58774;SDS011;44545;47.480;19.024;2023-04-24T11:18:15;7.25;;;3.45;;
58774;SDS011;44545;47.480;19.024;2023-04-24T11:21:20;7.37;;;4.12;;
58774;SDS011;44545;47.480;19.024;2023-04-24T11:27:42;6.75;;;3.67;;
58774;SDS011;44545;47.480;19.024;2023-04-24T11:30:45;6.60;;;4.18;;
58774;SDS011;44545;47.480;19.024;2023-04-24T11:33:48;6.45;;;4.18;;
58774;SDS011;44545;47.480;19.024;2023-04-24T11:36:50;7.53;;;3.90;;
58774;SDS011;44545;47.480;19.024;2023-04-24T11:39:53;6.47;;;3.95;;
58774;SDS011;44545;47.480;19.024;2023-04-24T11:42:59;6.85;;;3.40;;
58774;SDS011;44545;47.480;19.024;2023-04-24T11:46:02;6.47;;;3.75;;
58774;SDS011;44545;47.480;19.024;2023-04-24T11:49:07;9.50;;;3.60;;
58774;SDS011;44545;47.480;19.024;2023-04-24T11:52:09;8.05;;;4.85;;
58774;SDS011;44545;47.480;19.024;2023-04-24T11:58:20;3.92;;;3.47;;
58774;SDS011;44545;47.480;19.024;2023-04-24T12:01:24;10.25;;;3.95;;
58774;SDS011;44545;47.480;19.024;2023-04-24T12:04:26;5.15;;;3.12;;
58774;SDS011;44545;47.480;19.024;2023-04-24T12:07:29;6.10;;;3.45;;
58774;SDS011;44545;47.480;19.024;2023-04-24T12:10:32;4.97;;;2.78;;
58774;SDS011;44545;47.480;19.024;2023-04-24T12:13:35;3.95;;;2.35;;
58774;SDS011;44545;47.480;19.024;2023-04-24T12:16:38;5.62;;;2.40;;
58774;SDS011;44545;47.480;19.024;2023-04-24T12:19:44;9.80;;;3.78;;
58774;SDS011;44545;47.480;19.024;2023-04-24T12:25:59;5.85;;;3.30;;
58774;SDS011;44545;47.480;19.024;2023-04-24T12:29:04;6.65;;;4.35;;
58774;SDS011;44545;47.480;19.024;2023-04-24T12:32:15;8.05;;;4.22;;
58774;SDS011;44545;47.480;19.024;2023-04-24T12:35:22;5.93;;;2.83;;
58774;SDS011;44545;47.480;19.024;2023-04-24T12:38:26;7.18;;;4.15;;
58774;SDS011;44545;47.480;19.024;2023-04-24T12:41:31;8.82;;;4.57;;
58774;SDS011;44545;47.480;19.024;2023-04-24T12:44:34;8.68;;;3.78;;
58774;SDS011;44545;47.480;19.024;2023-04-24T12:47:37;6.25;;;3.70;;
58774;SDS011;44545;47.480;19.024;2023-04-24T12:50:42;5.43;;;3.10;;
58774;SDS011;44545;47.480;19.024;2023-04-24T12:53:48;4.75;;;2.55;;
58774;SDS011;44545;47.480;19.024;2023-04-24T12:56:50;4.72;;;2.55;;
58774;SDS011;44545;47.480;19.024;2023-04-24T12:59:53;7.37;;;3.60;;
58774;SDS011;44545;47.480;19.024;2023-04-24T13:02:57;4.68;;;3.08;;
58774;SDS011;44545;47.480;19.024;2023-04-24T13:06:00;3.70;;;2.67;;
58774;SDS011;44545;47.480;19.024;2023-04-24T13:09:02;5.45;;;2.67;;
58774;SDS011;44545;47.480;19.024;2023-04-24T13:12:06;4.53;;;2.53;;
58774;SDS011;44545;47.480;19.024;2023-04-24T13:15:08;6.85;;;3.05;;
58774;SDS011;44545;47.480;19.024;2023-04-24T13:18:11;5.00;;;2.47;;
58774;SDS011;44545;47.480;19.024;2023-04-24T13:21:13;5.45;;;2.70;;
58774;SDS011;44545;47.480;19.024;2023-04-24T13:24:17;3.78;;;2.25;;
58774;SDS011;44545;47.480;19.024;2023-04-24T13:27:19;3.35;;;2.20;;
58774;SDS011;44545;47.480;19.024;2023-04-24T13:30:21;3.08;;;1.55;;
58774;SDS011;44545;47.480;19.024;2023-04-24T13:33:24;3.53;;;2.10;;
58774;SDS011;44545;47.480;19.024;2023-04-24T13:36:26;2.58;;;1.65;;
58774;SDS011;44545;47.480;19.024;2023-04-24T13:39:29;2.70;;;1.65;;
58774;SDS011;44545;47.480;19.024;2023-04-24T13:42:31;6.68;;;1.80;;
58774;SDS011;44545;47.480;19.024;2023-04-24T13:45:34;3.47;;;2.78;;
58774;SDS011;44545;47.480;19.024;2023-04-24T13:48:36;6.57;;;2.47;;
58774;SDS011;44545;47.480;19.024;2023-04-24T13:51:39;10.65;;;1.70;;
58774;SDS011;44545;47.480;19.024;2023-04-24T13:54:42;3.90;;;2.33;;
58774;SDS011;44545;47.480;19.024;2023-04-24T13:57:44;6.87;;;2.17;;
58774;SDS011;44545;47.480;19.024;2023-04-24T14:00:46;4.30;;;2.45;;
58774;SDS011;44545;47.480;19.024;2023-04-24T14:03:49;5.30;;;2.25;;
58774;SDS011;44545;47.480;19.024;2023-04-24T14:06:52;5.53;;;3.97;;
58774;SDS011;44545;47.480;19.024;2023-04-24T14:09:55;3.78;;;2.22;;
58774;SDS011;44545;47.480;19.024;2023-04-24T14:12:57;4.72;;;2.22;;
58774;SDS011;44545;47.480;19.024;2023-04-24T14:15:59;3.28;;;1.67;;
58774;SDS011;44545;47.480;19.024;2023-04-24T14:19:04;6.20;;;1.80;;
58774;SDS011;44545;47.480;19.024;2023-04-24T14:22:07;4.05;;;2.22;;
58774;SDS011;44545;47.480;19.024;2023-04-24T14:25:09;4.22;;;2.15;;
58774;SDS011;44545;47.480;19.024;2023-04-24T14:28:12;4.65;;;2.17;;
58774;SDS011;44545;47.480;19.024;2023-04-24T14:31:14;3.83;;;3.37;;
58774;SDS011;44545;47.480;19.024;2023-04-24T14:34:17;4.82;;;2.42;;
58774;SDS011;44545;47.480;19.024;2023-04-24T14:37:19;3.90;;;2.60;;
58774;SDS011;44545;47.480;19.024;2023-04-24T14:40:22;4.20;;;2.95;;
58774;SDS011;44545;47.480;19.024;2023-04-24T14:43:44;5.60;;;3.00;;
58774;SDS011;44545;47.480;19.024;2023-04-24T14:46:48;3.30;;;2.47;;
58774;SDS011;44545;47.480;19.024;2023-04-24T14:49:50;7.10;;;2.67;;
58774;SDS011;44545;47.480;19.024;2023-04-24T14:52:54;5.10;;;2.37;;
58774;SDS011;44545;47.480;19.024;2023-04-24T14:55:59;6.57;;;3.15;;
58774;SDS011;44545;47.480;19.024;2023-04-24T14:59:01;5.68;;;2.85;;
58774;SDS011;44545;47.480;19.024;2023-04-24T15:02:04;5.57;;;3.42;;
58774;SDS011;44545;47.480;19.024;2023-04-24T15:05:17;5.40;;;2.97;;
58774;SDS011;44545;47.480;19.024;2023-04-24T15:08:20;3.97;;;2.72;;
58774;SDS011;44545;47.480;19.024;2023-04-24T15:11:22;6.37;;;3.97;;
58774;SDS011;44545;47.480;19.024;2023-04-24T15:14:25;4.85;;;3.12;;
58774;SDS011;44545;47.480;19.024;2023-04-24T15:17:27;4.05;;;2.72;;
